MSC Federica — HPQE — position and weather

sailwx.info

Track history (hours):
 
Tides and Currents Weather Stations Pressure Air Temp Water Temp Dewpoint Dewpoint Depression Visibility Wind Speed Wind Dir Waves Ship Positions

MSC Federica

Last reported at 2014-Oct-29 19:19 UTC. Time now 2014-Nov-01 02:02 UTC.
Position N 38°44' W 074°10'.

Length 294 m; draft 9.5 m.

Type: Ship (hazmat cat B). MMSI: 357363000.

Date/timePositionNaut miles runAvg speedWind from/ knotsBaromVisibWave heightAir tempDewpointWater temp
2014-Oct-29 19:19N 38°44' W 074°10'1317.0
2014-Oct-29 18:34N 38°57' W 074°06'1817.7
2014-Oct-29 17:34N 39°14' W 074°02'1716.8
2014-Oct-29 16:33N 39°31' W 073°57'1616.1
2014-Oct-29 15:33N 39°47' W 073°53'1616.2
2014-Oct-29 14:33N 40°03' W 073°51'1616.3
2014-Oct-29 13:34N 40°19' W 073°49'1211.6
2014-Oct-29 12:33N 40°29' W 073°55'1212.2
2014-Oct-29 11:33N 40°39' W 074°05'3 2.6
2014-Oct-29 10:33N 40°40' W 074°08'1 0.9
2014-Oct-29 09:32N 40°41' W 074°09'0 0.0
2014-Oct-29 08:32N 40°41' W 074°09'0 0.0
2014-Oct-29 07:32N 40°41' W 074°09'0 0.0
2014-Oct-29 06:32N 40°41' W 074°09'0 0.0
2014-Oct-29 05:32N 40°41' W 074°09'0 0.0
2014-Oct-29 04:32N 40°41' W 074°09'0 0.0
2014-Oct-29 03:32N 40°41' W 074°09'0 0.0
2014-Oct-29 02:32N 40°41' W 074°09'0 0.0
2014-Oct-29 01:32N 40°41' W 074°09'0 0.0
2014-Oct-29 00:32N 40°41' W 074°09'0 0.0
2014-Oct-28 23:32N 40°41' W 074°09'0 0.0
2014-Oct-28 22:32N 40°41' W 074°09'0 0.0
2014-Oct-28 21:32N 40°41' W 074°09'0 0.0
2014-Oct-28 20:32N 40°41' W 074°09'0 0.0
2014-Oct-28 19:32N 40°41' W 074°09'0 0.0
2014-Oct-28 18:32N 40°41' W 074°09'0 0.0
2014-Oct-28 17:32N 40°41' W 074°09'0 0.0
2014-Oct-28 16:14N 40°41' W 074°09'1 1.2
2014-Oct-28 15:32N 40°40' W 074°08'3 2.9
2014-Oct-28 14:33N 40°39' W 074°05'1212.3
2014-Oct-28 13:33N 40°29' W 073°55'9 9.3
2014-Oct-28 12:33N 40°28' W 073°43'5 4.5
2014-Oct-28 11:32N 40°29' W 073°37'0 0.0
2014-Oct-28 10:32N 40°29' W 073°37'0 0.1
2014-Oct-28 09:29N 40°29' W 073°37'0 0.1
2014-Oct-28 08:26N 40°29' W 073°37'0 0.0
2014-Oct-28 07:20N 40°29' W 073°37'0 0.0
2014-Oct-28 06:32N 40°29' W 073°37'0 0.0
2014-Oct-28 05:20N 40°29' W 073°37'0 0.0
2014-Oct-28 04:29N 40°29' W 073°37'0 0.0
2014-Oct-28 02:05N 40°29' W 073°37'2 0.3
2014-Oct-27 19:09N 40°28' W 073°35'712.1
2014-Oct-27 18:34N 40°24' W 073°43'3315.6
2014-Oct-27 16:27N 39°51' W 073°42'1415.7
2014-Oct-27 15:33N 39°37' W 073°44'1615.7
2014-Oct-27 14:30N 39°22' W 073°50'69 9.9
2014-Oct-27 07:33N 39°15' W 075°19'1818.4
2014-Oct-27 06:33N 39°29' W 075°34'1211.7
2014-Oct-27 05:33N 39°40' W 075°31'1110.3
2014-Oct-27 04:32N 39°49' W 075°24'9 9.2
2014-Oct-27 03:33N 39°52' W 075°13'4 2.8
2014-Oct-27 02:11N 39°54' W 075°08'11 1.2
2014-Oct-26 16:14N 39°50' W 075°22'7 9.9
2014-Oct-26 15:33N 39°46' W 075°29'1211.8
2014-Oct-26 14:33N 39°34' W 075°33'1413.8
2014-Oct-26 13:33N 39°21' W 075°27'  
Track history (hours):
 
Tides and Currents Weather Stations Pressure Air Temp Water Temp Dewpoint Dewpoint Depression Visibility Wind Speed Wind Dir Waves Ship Positions

MSC Federica

Last reported at 2014-Oct-29 19:19 UTC. Time now 2014-Nov-01 02:02 UTC.
Position N 38°44' W 074°10'.

Length 294 m; draft 9.5 m.

Type: Ship (hazmat cat B). MMSI: 357363000.

Date/timePositionNaut miles runAvg speedWind from/ knotsBaromVisibWave heightAir tempDewpointWater temp
2014-Oct-29 19:19N 38°44' W 074°10'1317.0
2014-Oct-29 18:34N 38°57' W 074°06'1817.7
2014-Oct-29 17:34N 39°14' W 074°02'1716.8
2014-Oct-29 16:33N 39°31' W 073°57'1616.1
2014-Oct-29 15:33N 39°47' W 073°53'1616.2
2014-Oct-29 14:33N 40°03' W 073°51'1616.3
2014-Oct-29 13:34N 40°19' W 073°49'1211.6
2014-Oct-29 12:33N 40°29' W 073°55'1212.2
2014-Oct-29 11:33N 40°39' W 074°05'3 2.6
2014-Oct-29 10:33N 40°40' W 074°08'1 0.9
2014-Oct-29 09:32N 40°41' W 074°09'0 0.0
2014-Oct-29 08:32N 40°41' W 074°09'0 0.0
2014-Oct-29 07:32N 40°41' W 074°09'0 0.0
2014-Oct-29 06:32N 40°41' W 074°09'0 0.0
2014-Oct-29 05:32N 40°41' W 074°09'0 0.0
2014-Oct-29 04:32N 40°41' W 074°09'0 0.0
2014-Oct-29 03:32N 40°41' W 074°09'0 0.0
2014-Oct-29 02:32N 40°41' W 074°09'0 0.0
2014-Oct-29 01:32N 40°41' W 074°09'0 0.0
2014-Oct-29 00:32N 40°41' W 074°09'0 0.0
2014-Oct-28 23:32N 40°41' W 074°09'0 0.0
2014-Oct-28 22:32N 40°41' W 074°09'0 0.0
2014-Oct-28 21:32N 40°41' W 074°09'0 0.0
2014-Oct-28 20:32N 40°41' W 074°09'0 0.0
2014-Oct-28 19:32N 40°41' W 074°09'0 0.0
2014-Oct-28 18:32N 40°41' W 074°09'0 0.0
2014-Oct-28 17:32N 40°41' W 074°09'0 0.0
2014-Oct-28 16:14N 40°41' W 074°09'1 1.2
2014-Oct-28 15:32N 40°40' W 074°08'3 2.9
2014-Oct-28 14:33N 40°39' W 074°05'1212.3
2014-Oct-28 13:33N 40°29' W 073°55'9 9.3
2014-Oct-28 12:33N 40°28' W 073°43'5 4.5
2014-Oct-28 11:32N 40°29' W 073°37'0 0.0
2014-Oct-28 10:32N 40°29' W 073°37'0 0.1
2014-Oct-28 09:29N 40°29' W 073°37'0 0.1
2014-Oct-28 08:26N 40°29' W 073°37'0 0.0
2014-Oct-28 07:20N 40°29' W 073°37'0 0.0
2014-Oct-28 06:32N 40°29' W 073°37'0 0.0
2014-Oct-28 05:20N 40°29' W 073°37'0 0.0
2014-Oct-28 04:29N 40°29' W 073°37'0 0.0
2014-Oct-28 02:05N 40°29' W 073°37'2 0.3
2014-Oct-27 19:09N 40°28' W 073°35'712.1
2014-Oct-27 18:34N 40°24' W 073°43'3315.6
2014-Oct-27 16:27N 39°51' W 073°42'1415.7
2014-Oct-27 15:33N 39°37' W 073°44'1615.7
2014-Oct-27 14:30N 39°22' W 073°50'69 9.9
2014-Oct-27 07:33N 39°15' W 075°19'1818.4
2014-Oct-27 06:33N 39°29' W 075°34'1211.7
2014-Oct-27 05:33N 39°40' W 075°31'1110.3
2014-Oct-27 04:32N 39°49' W 075°24'9 9.2
2014-Oct-27 03:33N 39°52' W 075°13'4 2.8
2014-Oct-27 02:11N 39°54' W 075°08'11 1.2
2014-Oct-26 16:14N 39°50' W 075°22'7 9.9
2014-Oct-26 15:33N 39°46' W 075°29'1211.8
2014-Oct-26 14:33N 39°34' W 075°33'1413.8
2014-Oct-26 13:33N 39°21' W 075°27'  

Dump ship's entire track history